createdAt,value
2018-03-25T00:01:08.763Z,3.00
2018-03-25T00:03:36.264Z,3.00
2018-03-25T00:06:03.780Z,3.00
2018-03-25T00:08:31.303Z,3.10
2018-03-25T00:10:58.811Z,3.00
2018-03-25T00:13:27.070Z,3.00
2018-03-25T00:15:54.565Z,3.00
2018-03-25T00:18:22.087Z,3.00
2018-03-25T00:20:49.592Z,3.00
2018-03-25T00:23:17.087Z,3.00
2018-03-25T00:25:44.583Z,3.00
2018-03-25T00:28:12.844Z,3.00
2018-03-25T00:30:40.339Z,3.00
2018-03-25T00:33:07.847Z,3.00
2018-03-25T00:35:36.127Z,2.90
2018-03-25T00:38:03.630Z,2.90
2018-03-25T00:40:31.168Z,2.90
2018-03-25T00:42:59.434Z,2.90
2018-03-25T00:45:27.694Z,2.90
2018-03-25T00:47:55.195Z,2.80
2018-03-25T00:50:22.691Z,2.90
2018-03-25T00:52:50.228Z,2.80
2018-03-25T00:55:18.463Z,2.80
2018-03-25T00:57:46.723Z,2.80
2018-03-25T01:00:14.231Z,2.80
2018-03-25T01:02:41.728Z,2.90
2018-03-25T01:05:09.216Z,2.90
2018-03-25T01:07:37.516Z,2.90
2018-03-25T01:10:05.019Z,2.90
2018-03-25T01:12:32.514Z,2.90
2018-03-25T01:15:00.787Z,3.00
2018-03-25T01:17:29.053Z,3.00
2018-03-25T01:19:56.655Z,2.90
2018-03-25T01:22:24.171Z,3.00
2018-03-25T01:24:51.666Z,3.00
2018-03-25T01:27:19.164Z,3.00
2018-03-25T01:29:46.654Z,3.00
2018-03-25T01:32:14.935Z,3.00
2018-03-25T01:34:43.210Z,3.10
2018-03-25T01:37:11.475Z,3.00
2018-03-25T01:39:38.972Z,3.00
2018-03-25T01:42:06.479Z,3.00
2018-03-25T01:44:33.971Z,3.00
2018-03-25T01:47:01.471Z,3.00
2018-03-25T01:49:28.969Z,3.00
2018-03-25T01:51:57.238Z,3.00
2018-03-25T01:54:24.745Z,3.00
2018-03-25T01:56:52.273Z,2.90
2018-03-25T01:59:20.578Z,2.90
2018-03-25T02:01:48.066Z,2.90
2018-03-25T02:04:15.579Z,2.90
2018-03-25T02:06:43.078Z,2.90
2018-03-25T02:09:10.571Z,2.90
2018-03-25T02:11:38.836Z,2.80
2018-03-25T02:14:06.330Z,2.80
2018-03-25T02:16:33.851Z,2.80
2018-03-25T02:19:01.351Z,2.80
2018-03-25T02:21:28.896Z,2.80
2018-03-25T02:23:57.160Z,2.80
2018-03-25T02:26:25.423Z,2.80
2018-03-25T02:28:52.932Z,2.80
2018-03-25T02:31:20.435Z,2.80
2018-03-25T02:33:47.945Z,2.80
2018-03-25T02:36:15.448Z,2.90
2018-03-25T02:38:42.954Z,2.90
2018-03-25T02:41:10.463Z,2.90
2018-03-25T02:43:37.982Z,2.80
2018-03-25T02:46:05.488Z,2.90
2018-03-25T02:48:32.999Z,2.90
2018-03-25T02:51:00.501Z,2.80
2018-03-25T02:53:27.997Z,2.80
2018-03-25T02:55:55.491Z,2.80
2018-03-25T02:58:23.000Z,2.80
2018-03-25T03:00:51.280Z,2.80
2018-03-25T03:03:19.551Z,2.90
2018-03-25T03:05:47.826Z,2.90
2018-03-25T03:08:16.095Z,2.80
2018-03-25T03:10:43.595Z,2.80
2018-03-25T03:13:11.091Z,2.80
2018-03-25T03:15:38.595Z,2.80
2018-03-25T03:18:06.147Z,2.80
2018-03-25T03:20:33.656Z,2.90
2018-03-25T03:23:01.167Z,2.80
2018-03-25T03:25:29.430Z,2.80
2018-03-25T03:27:57.705Z,2.80
2018-03-25T03:30:25.991Z,2.80
2018-03-25T03:32:54.252Z,2.80
2018-03-25T03:35:23.255Z,2.80
2018-03-25T03:37:51.543Z,2.80
2018-03-25T03:40:19.807Z,2.80
2018-03-25T03:42:48.134Z,2.80
2018-03-25T03:45:15.649Z,2.80
2018-03-25T03:47:43.918Z,2.80
2018-03-25T03:50:12.204Z,2.90
2018-03-25T03:52:40.466Z,2.90
2018-03-25T03:55:08.763Z,2.90
2018-03-25T03:57:36.255Z,2.90
2018-03-25T04:00:03.748Z,2.90
2018-03-25T04:02:31.256Z,2.90
2018-03-25T04:04:58.750Z,2.90
2018-03-25T04:07:26.251Z,2.90
2018-03-25T04:09:54.522Z,2.90
2018-03-25T04:12:22.783Z,2.80
2018-03-25T04:14:50.280Z,2.80
2018-03-25T04:17:17.776Z,2.80
2018-03-25T04:19:45.271Z,2.80
2018-03-25T04:22:13.543Z,2.80
2018-03-25T04:24:41.802Z,2.80
2018-03-25T04:27:09.299Z,2.80
2018-03-25T04:29:36.794Z,2.90
2018-03-25T04:32:04.299Z,2.90
2018-03-25T04:34:32.560Z,2.80
2018-03-25T04:37:00.067Z,2.80
2018-03-25T04:39:27.555Z,2.80
2018-03-25T04:41:55.068Z,2.80
2018-03-25T04:44:22.579Z,2.80
2018-03-25T04:46:50.071Z,2.80
2018-03-25T04:49:18.331Z,2.80
2018-03-25T04:51:46.715Z,2.80
2018-03-25T04:54:14.975Z,2.80
2018-03-25T04:56:42.483Z,2.80
2018-03-25T04:59:10.003Z,2.80
2018-03-25T05:01:38.266Z,2.80
2018-03-25T05:04:05.777Z,2.80
2018-03-25T05:06:33.275Z,2.80
2018-03-25T05:09:00.767Z,2.80
2018-03-25T05:11:29.031Z,2.80
2018-03-25T05:13:57.313Z,2.90
2018-03-25T05:16:25.599Z,2.90
2018-03-25T05:18:53.967Z,2.90
2018-03-25T05:21:22.229Z,2.90
2018-03-25T05:23:49.722Z,2.90
2018-03-25T05:26:17.235Z,3.00
2018-03-25T05:28:44.731Z,3.00
2018-03-25T05:31:13.009Z,3.00
2018-03-25T05:33:40.523Z,3.00
2018-03-25T05:36:08.022Z,3.10
2018-03-25T05:38:36.295Z,3.10
2018-03-25T05:41:04.598Z,3.20
2018-03-25T05:43:32.100Z,3.10
2018-03-25T05:45:59.612Z,3.20
2018-03-25T05:48:27.102Z,3.30
2018-03-25T05:50:54.599Z,3.20
2018-03-25T05:53:22.864Z,3.30
2018-03-25T05:55:50.387Z,3.30
2018-03-25T05:58:17.875Z,3.30
2018-03-25T06:00:45.368Z,3.40
2018-03-25T06:03:12.880Z,3.40
2018-03-25T06:05:40.372Z,3.50
2018-03-25T06:08:08.652Z,3.60
2018-03-25T06:10:36.174Z,3.50
2018-03-25T06:13:03.671Z,3.60
2018-03-25T06:15:31.927Z,3.70
2018-03-25T06:18:00.199Z,3.70
2018-03-25T06:20:27.715Z,3.70
2018-03-25T06:22:55.211Z,3.80
2018-03-25T06:25:22.703Z,3.90
2018-03-25T06:27:50.210Z,3.90
2018-03-25T06:30:17.730Z,3.90
2018-03-25T06:32:45.230Z,4.00
2018-03-25T06:35:12.738Z,4.00
2018-03-25T06:37:40.232Z,4.00
2018-03-25T06:40:07.726Z,4.00
2018-03-25T06:42:35.245Z,4.10
2018-03-25T06:45:02.748Z,4.10
2018-03-25T06:47:31.007Z,4.20
2018-03-25T06:49:58.518Z,4.20
2018-03-25T06:52:26.053Z,4.20
2018-03-25T06:54:54.332Z,4.40
2018-03-25T06:57:22.608Z,4.40
2018-03-25T06:59:51.130Z,4.50
2018-03-25T07:02:18.548Z,4.50
2018-03-25T07:04:46.806Z,4.70
2018-03-25T07:07:14.328Z,4.70
2018-03-25T07:09:41.849Z,4.80
2018-03-25T07:12:09.348Z,4.80
2018-03-25T07:14:36.863Z,4.90
2018-03-25T07:17:04.380Z,5.00
2018-03-25T07:19:32.642Z,5.10
2018-03-25T07:22:00.152Z,5.10
2018-03-25T07:24:28.424Z,5.30
2018-03-25T07:26:56.688Z,5.30
2018-03-25T07:29:24.963Z,5.40
2018-03-25T07:31:53.232Z,5.50
2018-03-25T07:34:20.731Z,5.50
2018-03-25T07:36:48.227Z,5.60
2018-03-25T07:39:15.733Z,5.60
2018-03-25T07:41:43.992Z,5.80
2018-03-25T07:44:12.439Z,5.80
2018-03-25T07:46:39.944Z,5.80
2018-03-25T07:49:08.224Z,6.00
2018-03-25T07:51:36.493Z,6.00
2018-03-25T07:54:04.756Z,6.10
2018-03-25T07:56:32.254Z,6.10
2018-03-25T07:58:59.752Z,6.20
2018-03-25T08:01:27.259Z,6.20
2018-03-25T08:03:54.825Z,6.30
2018-03-25T08:06:22.270Z,6.40
2018-03-25T08:08:49.766Z,6.40
2018-03-25T08:11:17.276Z,6.40
2018-03-25T08:13:45.551Z,6.50
2018-03-25T08:16:13.881Z,6.50
2018-03-25T08:18:41.366Z,6.50
2018-03-25T08:21:08.879Z,6.50
2018-03-25T08:23:36.383Z,6.70
2018-03-25T08:26:03.882Z,6.70
2018-03-25T08:28:31.380Z,6.80
2018-03-25T08:30:58.875Z,6.90
2018-03-25T08:33:27.186Z,7.00
2018-03-25T08:35:54.683Z,7.00
2018-03-25T08:38:22.176Z,7.10
2018-03-25T08:40:50.456Z,7.30
2018-03-25T08:43:18.731Z,7.40
2018-03-25T08:45:46.991Z,7.40
2018-03-25T08:48:15.254Z,7.40
2018-03-25T08:50:42.756Z,7.50
2018-03-25T08:53:10.259Z,7.50
2018-03-25T08:55:37.770Z,7.50
2018-03-25T08:58:05.267Z,7.60
2018-03-25T09:00:32.767Z,7.70
2018-03-25T09:03:01.047Z,7.90
2018-03-25T09:05:29.310Z,7.90
2018-03-25T09:07:56.803Z,7.90
2018-03-25T09:10:24.306Z,8.00
2018-03-25T09:12:51.804Z,8.00
2018-03-25T09:15:20.079Z,7.90
2018-03-25T09:17:48.339Z,7.90
2018-03-25T09:20:16.627Z,8.00
2018-03-25T09:22:44.883Z,8.10
2018-03-25T09:25:12.384Z,8.00
2018-03-25T09:27:39.884Z,8.10
2018-03-25T09:30:07.382Z,8.20
2018-03-25T09:32:35.651Z,8.30
2018-03-25T09:35:03.919Z,8.40
2018-03-25T09:37:32.191Z,8.40
2018-03-25T09:40:00.457Z,8.40
2018-03-25T09:42:28.740Z,8.50
2018-03-25T09:44:56.250Z,8.50
2018-03-25T09:47:23.743Z,8.60
2018-03-25T09:49:51.243Z,8.70
2018-03-25T09:52:18.758Z,8.80
2018-03-25T09:54:46.256Z,8.80
2018-03-25T09:57:13.783Z,8.90
2018-03-25T09:59:41.278Z,9.00
2018-03-25T10:15:33.316Z,9.20
2018-03-25T10:18:00.828Z,9.30
2018-03-25T10:20:28.314Z,9.40
2018-03-25T10:22:55.868Z,9.50
2018-03-25T10:25:23.367Z,9.70
2018-03-25T10:27:50.879Z,9.80
2018-03-25T10:30:19.140Z,10.10
2018-03-25T10:32:47.414Z,10.20
2018-03-25T10:35:15.694Z,10.30
2018-03-25T10:37:43.201Z,10.30
2018-03-25T10:40:10.708Z,10.30
2018-03-25T10:42:38.215Z,10.30
2018-03-25T10:45:05.748Z,10.40
2018-03-25T10:47:34.012Z,10.50
2018-03-25T10:50:02.316Z,10.70
2018-03-25T10:52:29.823Z,10.60
2018-03-25T10:54:57.331Z,10.80
2018-03-25T10:57:24.897Z,10.90
2018-03-25T10:59:52.363Z,11.00
2018-03-25T11:02:19.894Z,11.10
2018-03-25T11:04:47.451Z,11.20
2018-03-25T11:07:15.721Z,11.30
2018-03-25T11:09:43.999Z,11.20
2018-03-25T11:12:12.282Z,11.30
2018-03-25T11:14:39.803Z,11.30
2018-03-25T11:17:07.311Z,11.50
2018-03-25T11:19:34.819Z,11.60
2018-03-25T11:22:02.345Z,11.80
2018-03-25T11:24:29.859Z,11.90
2018-03-25T11:26:58.135Z,12.00
2018-03-25T11:29:26.407Z,12.10
2018-03-25T11:31:55.456Z,12.30
2018-03-25T11:34:22.995Z,12.30
2018-03-25T11:36:50.523Z,12.40
2018-03-25T11:39:18.829Z,12.50
2018-03-25T11:41:46.343Z,12.50
2018-03-25T11:44:13.853Z,12.60
2018-03-25T11:46:41.373Z,12.80
2018-03-25T11:49:09.655Z,13.00
2018-03-25T11:51:37.935Z,13.10
2018-03-25T11:54:06.350Z,13.20
2018-03-25T11:56:33.888Z,13.20
2018-03-25T11:59:01.403Z,13.20
2018-03-25T12:01:28.914Z,13.30
2018-03-25T12:03:56.562Z,13.50
2018-03-25T12:06:24.849Z,13.40
2018-03-25T12:08:52.357Z,13.40
2018-03-25T12:11:19.875Z,13.50
2018-03-25T12:13:47.367Z,13.60
2018-03-25T12:16:14.867Z,13.70
2018-03-25T12:18:43.136Z,13.80
2018-03-25T12:21:11.425Z,14.00
2018-03-25T12:23:39.697Z,14.00
2018-03-25T12:26:07.973Z,14.10
2018-03-25T12:28:36.252Z,14.10
2018-03-25T12:31:04.514Z,14.10
2018-03-25T12:33:32.824Z,14.20
2018-03-25T12:36:00.343Z,14.10
2018-03-25T12:38:29.356Z,14.40
2018-03-25T12:40:57.623Z,14.50
2018-03-25T12:43:25.896Z,14.70
2018-03-25T12:45:54.172Z,14.80
2018-03-25T12:48:21.696Z,14.70
2018-03-25T12:50:49.195Z,14.80
2018-03-25T12:53:17.484Z,14.80
2018-03-25T12:55:45.822Z,14.90
2018-03-25T12:58:13.331Z,14.80
2018-03-25T13:00:40.839Z,15.00
2018-03-25T13:03:08.354Z,15.30
2018-03-25T13:05:35.867Z,15.40
2018-03-25T13:08:03.395Z,15.60
2018-03-25T13:10:30.915Z,15.70
2018-03-25T13:12:58.428Z,15.80
2018-03-25T13:15:25.930Z,15.90
2018-03-25T13:17:54.196Z,15.90
2018-03-25T13:20:22.464Z,16.10
2018-03-25T13:22:49.982Z,16.10
2018-03-25T13:25:17.498Z,16.20
2018-03-25T13:27:45.778Z,16.30
2018-03-25T13:30:14.044Z,16.30
2018-03-25T13:32:42.354Z,16.30
2018-03-25T13:35:09.852Z,16.30
2018-03-25T13:37:37.354Z,16.30
2018-03-25T13:40:04.867Z,16.00
2018-03-25T13:42:32.388Z,15.80
2018-03-25T13:44:59.915Z,15.90
2018-03-25T13:47:28.192Z,16.00
2018-03-25T13:49:56.488Z,16.10
2018-03-25T13:52:23.991Z,16.00
2018-03-25T13:54:51.512Z,16.20
2018-03-25T13:57:19.031Z,16.30
2018-03-25T13:59:47.306Z,16.40
2018-03-25T14:02:15.629Z,16.30
2018-03-25T14:04:43.140Z,16.30
2018-03-25T14:07:10.654Z,16.30
2018-03-25T14:09:38.179Z,16.50
2018-03-25T14:12:06.454Z,17.10
2018-03-25T14:14:34.731Z,17.40
2018-03-25T14:17:03.011Z,17.50
2018-03-25T14:19:30.530Z,17.50
2018-03-25T14:21:58.027Z,17.60
2018-03-25T14:24:25.539Z,17.70
2018-03-25T14:26:53.047Z,17.70
2018-03-25T14:29:21.322Z,18.10
2018-03-25T14:31:48.843Z,18.10
2018-03-25T14:34:16.375Z,18.40
2018-03-25T14:36:43.873Z,18.70
2018-03-25T14:42:02.226Z,19.90
2018-03-25T14:44:32.864Z,20.90
2018-03-25T14:47:10.051Z,20.80
2018-03-25T14:49:54.615Z,21.50
2018-03-25T14:52:31.185Z,21.80
2018-03-25T14:55:07.066Z,21.80
2018-03-25T14:57:50.802Z,22.10
2018-03-25T15:00:25.273Z,22.80
2018-03-25T15:10:44.381Z,22.60
2018-03-25T15:13:19.317Z,23.10
2018-03-25T15:20:45.939Z,23.00
2018-03-25T15:23:24.972Z,22.50
2018-03-25T15:26:01.061Z,22.50
2018-03-25T15:28:44.273Z,22.20
2018-03-25T15:31:16.252Z,22.10
2018-03-25T15:34:01.404Z,21.70
2018-03-25T15:36:40.034Z,21.70
2018-03-25T15:39:38.107Z,21.20
2018-03-25T15:42:32.078Z,20.30
2018-03-25T15:45:16.433Z,19.20
2018-03-25T15:48:04.672Z,17.40
2018-03-25T15:50:39.297Z,17.40
2018-03-25T15:53:10.340Z,16.80
2018-03-25T15:55:45.775Z,16.20
2018-03-25T15:58:19.793Z,14.90
2018-03-25T16:03:36.929Z,14.20
2018-03-25T16:06:12.066Z,13.50
2018-03-25T16:08:48.943Z,12.90
2018-03-25T16:11:27.045Z,12.40
2018-03-25T16:14:29.727Z,11.90
2018-03-25T16:20:31.925Z,11.20
2018-03-25T16:23:12.491Z,10.90
2018-03-25T16:29:27.014Z,10.30
2018-03-25T16:32:16.824Z,9.90
2018-03-25T16:34:59.844Z,9.40
2018-03-25T16:37:45.246Z,9.40
2018-03-25T16:46:26.985Z,8.90
2018-03-25T16:49:12.158Z,8.70
2018-03-25T16:51:49.445Z,8.60
2018-03-25T17:00:14.435Z,8.20
2018-03-25T17:03:20.337Z,8.00
2018-03-25T17:06:05.723Z,7.90
2018-03-25T17:11:28.693Z,7.70
2018-03-25T17:14:12.370Z,7.70
2018-03-25T17:19:39.501Z,7.50
2018-03-25T17:22:25.384Z,7.40
2018-03-25T17:25:22.158Z,7.20
2018-03-25T17:28:22.045Z,7.10
2018-03-25T17:30:57.185Z,7.00
2018-03-25T17:33:35.834Z,6.80
2018-03-25T17:36:15.885Z,6.70
2018-03-25T17:38:49.483Z,6.70
2018-03-25T17:41:38.237Z,6.60
2018-03-25T17:44:10.915Z,6.50
2018-03-25T17:46:42.978Z,6.50
2018-03-25T17:49:14.613Z,6.40
2018-03-25T17:52:00.012Z,6.20
2018-03-25T17:54:44.973Z,6.20
2018-03-25T17:57:41.103Z,6.20
2018-03-25T18:00:28.527Z,6.10
2018-03-25T18:03:05.748Z,6.00
2018-03-25T18:05:49.437Z,5.90
2018-03-25T18:08:39.832Z,5.80
2018-03-25T18:20:56.294Z,5.80
2018-03-25T18:23:23.851Z,6.20
2018-03-25T18:26:00.447Z,6.20
2018-03-25T18:28:58.521Z,6.20
2018-03-25T18:31:49.107Z,6.20
2018-03-25T18:37:37.760Z,5.90
2018-03-25T18:43:25.514Z,5.70
2018-03-25T18:46:00.470Z,5.60
2018-03-25T18:57:55.432Z,5.40
2018-03-25T19:03:58.954Z,5.40
2018-03-25T19:06:40.805Z,5.30
2018-03-25T19:09:40.049Z,5.30
2018-03-25T19:12:30.956Z,5.30
2018-03-25T19:15:10.239Z,5.20
2018-03-25T19:17:47.221Z,5.20
2018-03-25T19:23:37.176Z,5.00
2018-03-25T19:26:21.986Z,5.10
2018-03-25T19:29:00.684Z,5.00
2018-03-25T19:31:33.584Z,4.90
2018-03-25T19:40:13.539Z,4.80
2018-03-25T19:42:50.776Z,4.70
2018-03-25T19:45:21.177Z,4.80
2018-03-25T19:47:53.316Z,4.80
2018-03-25T19:50:28.887Z,4.80
2018-03-25T19:53:06.276Z,4.70
2018-03-25T19:55:49.502Z,4.80
2018-03-25T19:58:22.365Z,4.70
2018-03-25T20:01:09.193Z,4.70
2018-03-25T20:03:51.586Z,4.70
2018-03-25T20:06:26.885Z,4.70
2018-03-25T20:09:07.906Z,4.70
2018-03-25T20:11:43.753Z,4.70
2018-03-25T20:14:21.164Z,4.60
2018-03-25T20:16:55.981Z,4.60
2018-03-25T20:19:39.405Z,4.60
2018-03-25T20:24:57.255Z,4.50
2018-03-25T20:27:48.472Z,4.50
2018-03-25T20:33:40.833Z,4.50
2018-03-25T20:36:40.843Z,4.40
2018-03-25T20:39:34.980Z,4.40
2018-03-25T20:42:19.690Z,4.40
2018-03-25T20:45:02.620Z,4.30
2018-03-25T20:47:40.931Z,4.30
2018-03-25T21:01:48.164Z,4.30
2018-03-25T21:04:22.586Z,4.30
2018-03-25T21:07:11.108Z,4.30
2018-03-25T21:09:59.205Z,4.30
2018-03-25T21:12:41.271Z,4.30
2018-03-25T21:15:23.577Z,4.30
2018-03-25T21:21:32.973Z,4.30
2018-03-25T21:29:54.123Z,4.30
2018-03-25T21:32:35.377Z,4.20
2018-03-25T21:35:16.832Z,4.20
2018-03-25T21:38:07.283Z,4.20
2018-03-25T21:43:43.878Z,4.20
2018-03-25T21:46:39.124Z,4.20
2018-03-25T21:52:20.213Z,4.20
2018-03-25T21:55:01.338Z,4.20
2018-03-25T21:57:55.341Z,4.10
2018-03-25T22:00:33.370Z,4.10
2018-03-25T22:03:18.028Z,4.10
2018-03-25T22:05:58.699Z,4.10
2018-03-25T22:11:16.029Z,4.20
2018-03-25T22:16:54.974Z,4.20
2018-03-25T22:19:31.841Z,4.10
2018-03-25T22:22:13.020Z,4.10
2018-03-25T22:24:51.744Z,4.10
2018-03-25T22:30:15.734Z,4.10
2018-03-25T22:32:56.749Z,4.10
2018-03-25T22:38:41.738Z,4.10
2018-03-25T22:41:29.821Z,4.10
2018-03-25T22:47:24.048Z,4.00
2018-03-25T22:50:04.846Z,4.00
2018-03-25T22:53:05.969Z,3.90
2018-03-25T22:56:03.574Z,3.90
2018-03-25T23:10:41.785Z,3.70
2018-03-25T23:13:38.870Z,3.70
2018-03-25T23:22:18.043Z,3.50
2018-03-25T23:24:55.797Z,3.50
2018-03-25T23:37:57.066Z,3.30
2018-03-25T23:40:40.329Z,3.30
2018-03-25T23:48:54.267Z,3.20
2018-03-25T23:57:15.039Z,3.10
